Loisir ou Compétition : Rejoignez un Club de la Fédération

Résultats

LA TRANSJURASSIENNE

Bois d Amont - Chaux Neuve

FP Dames

Jury de Compétition

Délégué Technique :
LOCATELLI DOMINIQUE (DA)
D.T. Adjoint :
MACOR ENZO (ITA)
Dir. Epreuve :
ROYDOR PATRICE (MJ)

Caractéristiques de la Piste

Piste :
Jura-Doubs
Distance :
45 km
Point Haut :
 
Point Bas :
 
Montée Tot. :
 
Montée Max. :
 
Homologation :
 

Pénalité Appliquée :
133.8500
Coefficient :
1400

Catégorie :
SEN->M12
Style :
L
Clt Dos Clt/Cat Code An Nom Prénom Com Club Temps Ecart Points
Classés
1 4174 1/SEN FFS2292465 1992 GRENARD MATHILDE MJ HT JURA SKI 2h32:56.9 00:00.0 133.85
2 4115 1/M2 LCN11693867 1980 BAVEREL FANNY 2h45:47.6 12:50.7 251.43
3 4004 2/SEN FFS2628766 1993 SERRETTE LAURIE ANNE MJ HAUTE JOUX 2h47:57.8 15:00.9 271.29
4 4104 1/M1 FFS2260999 1987 GENRE GRAND PIERRE KELLY MJ SC LESFOURGS 2h48:25.9 15:29.0 275.58
5 4178 3/SEN TIC610251595 1988 GRZEBISZ NATALIA 2h49:42.0 16:45.1 287.19
6 4221 4/SEN FNS312523 1992 MERCIER JEROMINE 2h54:01.2 21:04.3 326.73
7 4177 5/SEN FFS2620347 1994 VERKINDT ALICE DA CO 7 LAUX GR 2h57:29.2 24:32.3 358.46
8 4855 6/SEN TIC610251753 1993 JOLIVET LUCIE 3h00:38.4 27:41.5 387.32
9 4116 2/M2 LCN11694937 1982 GRILLON STEPHANIE 3h04:54.9 31:58.0 426.45
10 4641 3/M2 LCN11692010 1980 LAPERRIERE MARIE 3h06:09.4 33:12.5 437.82
11 4106 2/M1 LCN11718549 1987 RIALET MARION 3h06:54.8 33:57.9 444.75
12 4854 7/SEN TIC610251568 1995 GREUSARD MATHILDE 3h08:02.2 35:05.3 455.03
13 4118 4/M2 LCN11693873 1979 ROUSSEL ANNE SOPHIE 3h08:39.5 35:42.6 460.72
14 4127 1/M3 TIC610252202 1977 PARENT EMELINE 3h11:36.2 38:39.3 487.68
15 4148 1/M4 TIC610250750 1971 BELHINGHERI SANDRINE 3h12:48.9 39:52.0 498.77
16 4128 2/M3 FFS2655958 1974 CLAUDEL PATRICIA MV SK DU TANET 3h14:04.4 41:07.5 510.28
17 4117 5/M2 FFS2642775 1981 BARON LUDIVINE MJ VAL MORTEAU 3h15:15.9 42:19.0 521.19
18 4194 3/M1 LCN11694364 1986 PICARD DELPHINE 3h15:55.7 42:58.8 527.26
19 4175 8/SEN LCN11691443 1994 DENNEULIN MARIE 3h18:55.9 45:59.0 554.75
20 4220 9/SEN FFS2689243 1994 VASSEUR ORIABELLE MJ VAL MORTEAU 3h19:32.9 46:36.0 560.40
21 4179 10/SEN LCN11722493 1991 TRAMIER DELPHINE 3h21:07.6 48:10.7 574.85
22 4130 3/M3 FFS2620705 1974 LONCHAMPT JOCELYNE MJ PREMANON SC 3h22:38.0 49:41.1 588.64
23 4180 11/SEN TIC610250727 1990 BARTHET SYBILE 3h23:03.8 50:06.9 592.57
24 4105 4/M1 TIC610252061 1984 MERLE JULIE 3h23:09.1 50:12.2 593.38
25 4723 2/M4 LCN11718198 1968 DALOZ CHANTAL 3h25:14.0 52:17.1 612.44
26 4412 1/M5 LCN11693509 1965 PELLEGRINI MARIE CHANTAL 3h26:08.8 53:11.9 620.80
27 4650 6/M2 LCN11696267 1982 CUCHE ELODIE 3h27:13.7 54:16.8 630.70
28 4732 3/M4 LCN11715779 1969 MOREL JOELLE 3h27:32.0 54:35.1 633.49
29 4142 4/M4 TIC610251592 1969 GRUBER KATHRIN 3h27:40.0 54:43.1 634.71
30 4302 5/M1 TIC610250839 1986 BONNANS CAROLINE 3h28:25.0 55:28.1 641.57
31 4305 7/M2 TIC610252227 1978 PEGOUD CAROLE 3h29:19.3 56:22.4 649.86
32 4842 12/SEN TIC610251054 1988 CHEVASSUS ROSSET LAURE 3h29:23.5 56:26.6 650.50
33 4925 2/M5 TIC610252476 1966 SANTIAGO HORTENSIA 3h29:46.4 56:49.5 653.99
34 4114 8/M2 TIC610251077 1982 CLERC SYLVIE 3h31:00.8 58:03.9 665.34
35 4427 13/SEN TIC610252732 1992 WEILL LEA 3h31:19.1 58:22.2 668.13
36 4335 5/M4 FFS2667188 1972 COURGEON KATELL MJ SC LESFOURGS 3h33:58.1 1h01:01.2 692.39
37 4941 14/SEN TIC610250704 1994 BALOSSI AUGUSTINE 3h34:08.2 1h01:11.3 693.93
38 4176 15/SEN LCN11693859 1990 INVERNIZZI LEONIE 3h34:09.1 1h01:12.2 694.07
39 4607 6/M1 TIC610252374 1983 REDELSPERGER CORALIE 3h34:55.7 1h01:58.8 701.18
40 4334 6/M4 TIC610251249 1972 DEPARIS NATHALIE 3h35:43.9 1h02:47.0 708.53
41 4331 4/M3 LCN11711292 1976 MOSNIER VERONIQUE 3h36:02.4 1h03:05.5 711.35
42 4924 16/SEN TIC610251448 1992 GAIDET PAULINE 3h36:50.5 1h03:53.6 718.69
43 4205 5/M3 FFS2671099 1973 LE FUR EMILIE MV SC SEDANAIS 3h37:21.8 1h04:24.9 723.47
44 4907 6/M3 TIC610251790 1975 KONARSKI GAELLE 3h37:35.9 1h04:39.0 725.62
45 4376 17/SEN LCN11700050 1992 BACKSCHEIDER MARIE 3h38:07.7 1h05:10.8 730.47
46 4152 3/M5 TIC610250681 1966 AUTHIER SOPHIE 3h39:25.6 1h06:28.7 742.35
47 4940 18/SEN TIC610252074 1993 MICHALET FANNY 3h39:40.4 1h06:43.5 744.61
48 4375 19/SEN TIC610252716 1990 VUILLET MAELLE 3h39:45.2 1h06:48.3 745.34
49 4428 20/SEN TIC610251526 1994 GIULIA KRUMMENACHER 3h40:08.2 1h07:11.3 748.85
50 4897 7/M1 TIC610251685 1986 HUMBERT ELODIE 3h40:32.6 1h07:35.7 752.58
51 4724 7/M4 LCN11717474 1972 RAINBIRD TANYA 3h40:49.7 1h07:52.8 755.18
52 4204 7/M3 TIC610252108 1975 MONNIER BENOIT CORALIE 3h42:58.1 1h10:01.2 774.77
53 4378 21/SEN TIC610252686 1988 VILLET PERRINE 3h43:26.7 1h10:29.8 779.14
54 4688 8/M3 TIC610251010 1976 CHAMPON CHRISTELLE 3h44:29.6 1h11:32.7 788.73
55 4336 8/M4 TIC610250915 1972 BROQUET STEPHANIE 3h45:27.6 1h12:30.7 797.58
56 4337 9/M4 TIC610250705 1972 BANDELIER MARTINE 3h46:33.3 1h13:36.4 807.60
57 4648 9/M2 FNS504230 1978 PENSEYRES CAROLINE 3h46:58.7 1h14:01.8 811.48
58 4362 1/M7 FFS2645232 1953 LATRY ODILE MV SC GUEBWILLE 3h47:10.3 1h14:13.4 813.25
59 4380 22/SEN TIC610252334 1990 PRIEUR MARION 3h47:25.6 1h14:28.7 815.58
60 4847 23/SEN TIC610252498 1990 SEGAUD ANNELISE 3h47:34.0 1h14:37.1 816.86
61 4645 10/M2 TIC610252499 1978 SEGAUD FREDERIQUE 3h47:35.1 1h14:38.2 817.03
62 4690 9/M3 TIC610252564 1974 TERNYNCK SYLVIE 3h49:42.5 1h16:45.6 836.47
63 4785 1/M6 TIC610251905 1958 LEPEULE FRANCOISE 3h49:50.7 1h16:53.8 837.72
64 4858 24/SEN TIC610252581 1989 THILLIEN MORGANE 3h49:56.2 1h16:59.3 838.56
65 4857 25/SEN TIC610251267 1995 DEVIN PERRINE 3h50:15.2 1h17:18.3 841.45
66 4319 11/M2 TIC610250695 1979 BAILLY SALINS CAROLINE 3h50:28.1 1h17:31.2 843.42
67 4318 12/M2 FFS2677442 1978 BUET EMILIE MJ SMBM/MORBIER 3h51:15.9 1h18:19.0 850.72
68 4602 8/M1 TIC610252155 1985 NEBOUT ALINE 3h51:18.2 1h18:21.3 851.07
69 4642 13/M2 TIC610250983 1981 CAUDAL CAROLINE 3h51:19.3 1h18:22.4 851.23
70 4317 14/M2 TIC610251933 1981 LONGEVILLE VIOLAINE 3h52:19.5 1h19:22.6 860.42
71 4856 26/SEN TIC610252230 1990 PELLET LAURENCE 3h53:28.7 1h20:31.8 870.97
72 4605 9/M1 TIC610252095 1984 MILLOZ CHLOE 3h54:58.9 1h22:02.0 884.74
73 4406 10/M4 TIC610252232 1970 PELTONEN LEENA 3h55:21.1 1h22:24.2 888.12
74 4850 27/SEN TIC610251532 1995 GONDOUIN ANNA 3h55:50.4 1h22:53.5 892.59
75 4901 15/M2 TIC610251781 1979 KHARITONOVA KATYA 3h56:11.3 1h23:14.4 895.78
76 4727 11/M4 TIC610250882 1969 BOURGEOIS REPUBLIQUE CLAI 3h56:36.0 1h23:39.1 899.55
77 4329 10/M3 TIC610251750 1974 JEUNET MAUD 3h56:57.5 1h24:00.6 902.83
78 4339 12/M4 FFS2674397 1972 MASSON MATHILDE MJ SMBM/MORBIER 3h57:01.1 1h24:04.2 903.38
79 4725 13/M4 TIC610251040 1970 CHATRON VERONIQUE 3h57:19.4 1h24:22.5 906.17
80 4301 2/M6 FFS2603290 1962 EKSZTEROWICZ AGNES SA ALBERTVILLE 3h57:49.2 1h24:52.3 910.72
81 4401 11/M3 TIC610251422 1975 FOREY SANDRINE 3h59:33.7 1h26:36.8 926.66
82 4377 28/SEN LCN11692757 1992 PAGET MEGANE 3h59:33.9 1h26:37.0 926.69
83 4211 4/M5 LCN11726547 1967 PYRLIK MARION 3h59:43.5 1h26:46.6 928.15
84 4681 12/M3 TIC610250677 1975 AUGUSTIN JULIE 3h59:53.8 1h26:56.9 929.72
85 4691 13/M3 LCN11705425 1977 PERL AMANDA 3h59:58.3 1h27:01.4 930.41
86 4315 16/M2 TIC610251789 1980 KOMORNICZAK NATHALIE 4h00:15.8 1h27:18.9 933.08
87 4303 10/M1 FFS2677828 1985 POULAIN CAMILLE IF CS CHEM PARI 4h01:52.4 1h28:55.5 947.82
88 4903 17/M2 TIC610252479 1982 SAUVADET ELISE 4h02:16.6 1h29:19.7 951.51
89 4396 18/M2 TIC610252478 1979 SAUVADET CLAIRE 4h02:49.8 1h29:52.9 956.57
90 4846 29/SEN TIC610251045 1991 CHAUVET ELINE 4h04:16.4 1h31:19.5 969.79
91 4416 3/M6 TIC610252537 1962 SPADONE LAURENCE 4h04:52.7 1h31:55.8 975.32
92 4379 30/SEN TIC610250937 1991 BURDIN CHLOE 4h05:07.1 1h32:10.2 977.52
93 4328 14/M3 TIC610251472 1974 GARNIER GERALDINE 4h05:36.7 1h32:39.8 982.04
94 4682 15/M3 TIC610250747 1976 BEHAR ALEXIA 4h06:00.1 1h33:03.2 985.61
95 4735 14/M4 TIC610250672 1968 AUBERT VERONIQUE 4h06:50.5 1h33:53.6 993.29
96 4610 11/M1 TIC610252295 1986 PISTOLET LAURIE 4h07:36.6 1h34:39.7 1000.33
97 4853 31/SEN TIC610251921 1992 LIENART AUDREY 4h09:59.2 1h37:02.3 1022.08
98 4426 32/SEN LCN11734593 1992 BOURNEZ EMILIE 4h10:26.4 1h37:29.5 1026.23
99 4731 15/M4 TIC610251565 1970 GRENIER BOLEY NADIA 4h10:51.7 1h37:54.8 1030.09
100 4722 16/M4 LCN11694815 1968 BOLE ISABELLE 4h12:21.2 1h39:24.3 1043.75
101 4643 19/M2 LCN11697130 1979 JACKIW CELINE 4h12:50.4 1h39:53.5 1048.20
102 4841 33/SEN TIC610251138 1989 CRETIN MAITENAZ AUDE 4h13:05.2 1h40:08.3 1050.46
103 4210 5/M5 TIC610252369 1964 RAZUREL PASCALE 4h13:06.4 1h40:09.5 1050.64
104 4609 12/M1 TIC610252703 1983 VORAMWALD YVONNE 4h13:14.1 1h40:17.2 1051.82
105 4603 13/M1 TIC610251185 1983 DE COLLASSON EDITH 4h16:04.4 1h43:07.5 1077.80
106 4608 14/M1 TIC610252496 1985 SCHWOB FLORIANE 4h16:06.6 1h43:09.7 1078.13
107 4845 34/SEN TIC610251207 1994 DEBOIS MARINE 4h16:17.2 1h43:20.3 1079.75
108 4733 17/M4 TIC610252125 1970 MOREL MARTIN AMELIE 4h17:36.2 1h44:39.3 1091.80
109 4787 4/M6 LCN11690532 1959 JACQUIER MARIE AUDE 4h18:34.1 1h45:37.2 1100.63
110 4421 1/M8 TIC610251896 1951 LEGROS GISELE 4h18:34.3 1h45:37.4 1100.66
111 4314 20/M2 TIC610252216 1981 PATOUILLARD CELINE 4h18:38.8 1h45:41.9 1101.35
112 4692 16/M3 TIC610251278 1977 DIGEAUX CHRISTELLE 4h18:52.8 1h45:55.9 1103.49
113 4942 35/SEN TIC610252576 1988 THIEBAUD LISA 4h20:06.3 1h47:09.4 1114.70
114 4687 17/M3 TIC610251765 1975 JUAREZ CHRISTINE 4h20:29.4 1h47:32.5 1118.22
115 4902 21/M2 TIC610251478 1978 GAUTHIER CARINE 4h21:28.4 1h48:31.5 1127.22
116 4680 18/M3 TIC610251465 1975 GARCIA CECILE 4h21:33.8 1h48:36.9 1128.05
117 4611 15/M1 TIC610250655 1983 ANNUS ELIISE 4h22:01.0 1h49:04.1 1132.20
118 4349 6/M5 TIC610251084 1966 COLAU MARIE MARTINE 4h22:08.1 1h49:11.2 1133.28
119 4689 19/M3 TIC610250979 1977 CASERIO SANDRINE 4h23:01.5 1h50:04.6 1141.35
120 4694 20/M3 LCN11704084 1975 BLIGNY CAROLINE 4h23:02.6 1h50:05.7 1141.55
121 4730 18/M4 TIC610251683 1972 HUGUIN ISABELLE 4h25:29.6 1h52:32.7 1163.95
122 4786 5/M6 TIC610251493 1959 GENTET FRANCOISE 4h25:31.7 1h52:34.8 1164.25
123 4736 19/M4 TIC610252554 1970 TAMBURELLA CLAIRE 4h25:38.1 1h52:41.2 1165.25
124 4209 7/M5 TIC610251979 1965 MARCEAU FABIENNE 4h25:57.0 1h53:00.1 1168.15
125 4304 16/M1 TIC610251796 1986 KOUNINA ANNA 4h26:04.7 1h53:07.8 1169.35
126 4726 20/M4 TIC610251206 1968 DEBOIS CORINNE 4h26:52.0 1h53:55.1 1176.55
127 4679 21/M3 TIC610252084 1977 MICHEL MARREL SOPHIE 4h27:13.7 1h54:16.8 1179.85
128 4840 36/SEN TIC610252376 1989 REGAD MARIE 4h27:25.4 1h54:28.5 1181.65
129 4756 8/M5 TIC610251644 1963 HELY CATHERINE 4h28:23.0 1h55:26.1 1190.45
130 4849 37/SEN TIC610251378 1989 FAIVRE LAURIANE 4h28:41.7 1h55:44.8 1193.25
131 4684 22/M3 LCN11731369 1977 BRANCHE ARMELLE 4h28:42.4 1h55:45.5 1193.35
132 4644 22/M2 LCN11703074 1980 BERTHOD MILENE 4h31:11.0 1h58:14.1 1216.05
133 4783 6/M6 TIC610250931 1962 BUISSON CHANTAL 4h31:24.8 1h58:27.9 1218.15
134 4693 23/M3 TIC610252320 1974 POURCELOT CLAIRE 4h32:03.7 1h59:06.8 1224.05
135 4836 38/SEN TIC610251340 1992 DUPAS JEANNE 4h33:40.5 2h00:43.6 1238.85
136 4639 23/M2 TIC610252572 1978 THIBAUD NATACHA 4h34:11.0 2h01:14.1 1243.55
137 4757 9/M5 TIC610252738 1964 WENGER PATRICIA 4h34:27.6 2h01:30.7 1246.05
138 4918 21/M4 TIC610251037 1972 CHATEAU NATHALIE 4h34:59.3 2h02:02.4 1250.85
139 4852 39/SEN TIC610251978 1988 MARCEAU CHLOE 4h37:16.4 2h04:19.5 1271.85
140 4338 22/M4 TIC610252010 1969 MARTINACHE SCHNEIDER MURI 4h37:59.3 2h05:02.4 1278.35
141 4218 2/M7 TIC610251144 1956 CUCHE CAMILLE 4h42:22.3 2h09:25.4 1318.45
142 4807 3/M7 TIC610252471 1956 SALVI MURIEL 4h43:50.5 2h10:53.6 1331.95
143 4678 24/M3 TIC610252253 1974 PETITCOLIN SOPHIE 4h45:17.6 2h12:20.7 1345.25
144 4788 7/M6 TIC610251927 1961 LIPNIACKA ANNA 4h46:22.4 2h13:25.5 1355.05
145 4640 24/M2 TIC610252373 1979 REBOUL SALZE SOPHIE 4h50:11.3 2h17:14.4 1390.05
146 4647 25/M2 LCN11696562 1978 CHEREAU FLORENCE 4h52:40.7 2h19:43.8 1412.85
147 4837 40/SEN FFS2687379 1988 CARON JULIETTE SA CS LA FECLAZ 4h53:00.0 2h20:03.1 1415.75
148 4646 26/M2 TIC610252729 1979 WEBER CHLOE 4h53:13.0 2h20:16.1 1417.75
149 4425 41/SEN TIC610251060 1992 CHOPARD LALLIER ANAIS 4h53:54.1 2h20:57.2 1424.05
150 4424 42/SEN TIC610250716 1990 BARRAND LAURA 4h53:55.1 2h20:58.2 1424.15
151 4917 23/M4 FNL2060148 1972 GÓMEZ MARZO MARIA GLÒRI 4h55:03.4 2h22:06.5 1434.55
152 4737 24/M4 TIC610252488 1968 SCHIMTT NELLY 4h55:50.6 2h22:53.7 1441.75
153 4898 17/M1 TIC610252310 1987 PONCET CAROLINE 4h56:41.3 2h23:44.4 1449.55
154 4729 25/M4 TIC610251799 1969 KRALOVA IVANA 4h58:25.3 2h25:28.4 1465.35
155 4436 27/M2 TIC610252628 1980 VALLA SOPHIE 5h00:21.5 2h27:24.6 1483.15
156 4758 10/M5 TIC610251746 1965 JEANROY VERNIER CATHERINE 5h02:30.1 2h29:33.2 1502.75
157 4896 18/M1 TIC610251427 1984 FOURCHON CHLOE 5h05:35.7 2h32:38.8 1531.05
158 4824 2/M8 TIC610251137 1951 CRETIN CARPENTIER CLAIRE 5h09:23.8 2h36:26.9 1565.85
159 4927 11/M5 TIC610250779 1963 BERTHET ISABELLE 5h16:04.1 2h43:07.2 1626.95
160 4926 12/M5 TIC610251676 1965 HOURDEL LAURENCE 5h16:05.0 2h43:08.1 1627.05
161 4753 13/M5 FFS2677002 1963 CEUGNIET CLAIRE MB RANDO CHERAN 5h21:56.9 2h49:00.0 1680.75
162 4943 43/SEN TIC610251770 1993 KABANOVA DIANA 5h22:13.2 2h49:16.3 1683.25
163 4844 44/SEN TIC610251283 1989 DINE RAPHAELLE 5h26:53.7 2h53:56.8 1726.05
164 4848 45/SEN TIC610252313 1996 PONS ARIANE 5h27:33.1 2h54:36.2 1732.05
165 4843 46/SEN TIC610252234 1989 PENEL PAGE MATHILDE 5h33:46.4 3h00:49.5 1788.95
166 4604 19/M1 TIC610250757 1987 BENEZECH SARAH 5h33:51.0 3h00:54.1 1789.65
167 4728 26/M4 TIC610252123 1968 MOREL BRIGITTE 5h46:51.0 3h13:54.1 1908.65
168 4804 4/M7 TIC610251071 1956 CLEMENT MARIE JOSEPHE 7h18:51.0 4h45:54.1 2750.75
Abandons
4381 TIC610251275 1996 DIETRICH MAELLE
4649 TIC610252173 1981 ORLANDI MARYLINE
4683 TIC610252608 1973 TRIPIER CATHERINE
4686 TIC610250838 1974 BONNAMOUR CELINE
4734 TIC610251587 1971 GROSPERRIN ANNE LAURE
4754 TIC610252662 1967 VERNOTTE DANNY CORINE
4789 TIC610251887 1962 LECOSTEY ANNE
4806 TIC610251453 1953 GALL FRANCOISE
4838 TIC610252558 1988 TAPPERT LEA
4851 TIC610251339 1989 DUNCAN ANITA
4938 TIC610252301 1945 PLISSON SUZANNE
Non partants
4129 FFS2336551 1976 GIROD FANNY MJ SC FRASNE DR
4316 LCN11715438 1981 FORICHON CAROLINE